sensor_id;sensor_type;location;lat;lon;timestamp;pressure;altitude;pressure_sealevel;temperature;humidity
86224;BME280;76887;48.558;12.170;2024-03-23T00:53:14;96666.72;;;10.69;69.78
86224;BME280;76887;48.558;12.170;2024-03-23T00:55:43;96671.28;;;10.67;69.81
86224;BME280;76887;48.558;12.170;2024-03-23T00:58:08;96667.25;;;10.63;69.36
86224;BME280;76887;48.558;12.170;2024-03-23T01:00:34;96659.69;;;10.59;69.59
86224;BME280;76887;48.558;12.170;2024-03-23T01:03:00;96655.53;;;10.56;69.04
86224;BME280;76887;48.558;12.170;2024-03-23T01:05:25;96661.41;;;10.48;68.28
86224;BME280;76887;48.558;12.170;2024-03-23T01:07:51;96654.13;;;10.41;68.36
86224;BME280;76887;48.558;12.170;2024-03-23T01:10:16;96644.47;;;10.30;68.76
86224;BME280;76887;48.558;12.170;2024-03-23T01:12:42;96643.19;;;10.24;68.07
86224;BME280;76887;48.558;12.170;2024-03-23T01:15:08;96638.97;;;10.22;68.43
86224;BME280;76887;48.558;12.170;2024-03-23T01:17:34;96633.81;;;10.20;68.65
86224;BME280;76887;48.558;12.170;2024-03-23T01:19:59;96637.88;;;10.13;68.38
86224;BME280;76887;48.558;12.170;2024-03-23T01:22:25;96628.72;;;10.08;68.63
86224;BME280;76887;48.558;12.170;2024-03-23T01:24:50;96632.06;;;10.10;68.75
86224;BME280;76887;48.558;12.170;2024-03-23T01:27:16;96635.78;;;10.07;68.47
86224;BME280;76887;48.558;12.170;2024-03-23T01:29:41;96633.25;;;10.06;68.86
86224;BME280;76887;48.558;12.170;2024-03-23T01:32:07;96635.16;;;10.04;68.28
86224;BME280;76887;48.558;12.170;2024-03-23T01:34:33;96637.91;;;10.02;68.67
86224;BME280;76887;48.558;12.170;2024-03-23T01:36:58;96636.50;;;9.98;68.65
86224;BME280;76887;48.558;12.170;2024-03-23T01:39:24;96625.16;;;9.97;68.80
86224;BME280;76887;48.558;12.170;2024-03-23T01:41:50;96623.56;;;9.95;68.97
86224;BME280;76887;48.558;12.170;2024-03-23T01:44:16;96619.97;;;9.96;68.73
86224;BME280;76887;48.558;12.170;2024-03-23T01:46:43;96615.69;;;9.95;69.10
86224;BME280;76887;48.558;12.170;2024-03-23T01:49:09;96608.06;;;9.92;68.83
86224;BME280;76887;48.558;12.170;2024-03-23T01:51:36;96608.19;;;9.90;68.76
86224;BME280;76887;48.558;12.170;2024-03-23T01:54:02;96605.91;;;9.97;69.18
86224;BME280;76887;48.558;12.170;2024-03-23T01:56:35;96596.22;;;9.97;69.12
86224;BME280;76887;48.558;12.170;2024-03-23T01:59:04;96594.53;;;9.96;68.60
86224;BME280;76887;48.558;12.170;2024-03-23T02:01:31;96588.00;;;9.91;68.28
86224;BME280;76887;48.558;12.170;2024-03-23T02:03:56;96588.47;;;9.85;68.67
86224;BME280;76887;48.558;12.170;2024-03-23T02:11:38;96568.31;;;9.63;68.95
86224;BME280;76887;48.558;12.170;2024-03-23T02:14:03;96569.03;;;9.54;69.01
86224;BME280;76887;48.558;12.170;2024-03-23T02:16:29;96564.13;;;9.49;69.18
86224;BME280;76887;48.558;12.170;2024-03-23T02:18:54;96558.16;;;9.47;68.50
86224;BME280;76887;48.558;12.170;2024-03-23T02:21:20;96549.31;;;9.48;68.81
86224;BME280;76887;48.558;12.170;2024-03-23T02:23:45;96548.25;;;9.51;69.00
86224;BME280;76887;48.558;12.170;2024-03-23T02:26:11;96544.69;;;9.52;69.00
86224;BME280;76887;48.558;12.170;2024-03-23T02:28:36;96548.25;;;9.39;68.65
86224;BME280;76887;48.558;12.170;2024-03-23T02:31:02;96553.38;;;9.30;68.59
86224;BME280;76887;48.558;12.170;2024-03-23T02:33:29;96548.25;;;9.28;69.01
86224;BME280;76887;48.558;12.170;2024-03-23T02:35:58;96554.94;;;9.32;68.92
86224;BME280;76887;48.558;12.170;2024-03-23T02:38:23;96555.19;;;9.29;68.65
86224;BME280;76887;48.558;12.170;2024-03-23T02:40:49;96557.56;;;9.32;68.73
86224;BME280;76887;48.558;12.170;2024-03-23T02:43:15;96543.38;;;9.35;69.04
86224;BME280;76887;48.558;12.170;2024-03-23T02:45:41;96542.28;;;9.37;69.00
86224;BME280;76887;48.558;12.170;2024-03-23T02:48:06;96550.03;;;9.39;68.75
86224;BME280;76887;48.558;12.170;2024-03-23T02:50:32;96539.53;;;9.39;68.67
86224;BME280;76887;48.558;12.170;2024-03-23T02:52:57;96537.63;;;9.41;68.80
86224;BME280;76887;48.558;12.170;2024-03-23T02:55:23;96529.66;;;9.43;68.61
86224;BME280;76887;48.558;12.170;2024-03-23T02:57:48;96527.94;;;9.41;68.69
86224;BME280;76887;48.558;12.170;2024-03-23T03:00:14;96527.13;;;9.41;68.47
86224;BME280;76887;48.558;12.170;2024-03-23T03:02:40;96520.44;;;9.37;68.06
86224;BME280;76887;48.558;12.170;2024-03-23T03:05:06;96509.34;;;9.33;67.96
86224;BME280;76887;48.558;12.170;2024-03-23T03:07:32;96510.91;;;9.25;68.25
86224;BME280;76887;48.558;12.170;2024-03-23T03:09:57;96506.59;;;9.12;67.79
86224;BME280;76887;48.558;12.170;2024-03-23T03:12:23;96502.91;;;9.04;68.25
86224;BME280;76887;48.558;12.170;2024-03-23T03:14:48;96507.44;;;8.91;68.38
86224;BME280;76887;48.558;12.170;2024-03-23T03:17:14;96504.31;;;8.86;68.64
86224;BME280;76887;48.558;12.170;2024-03-23T03:19:40;96508.47;;;8.77;68.76
86224;BME280;76887;48.558;12.170;2024-03-23T03:22:06;96508.25;;;8.69;68.98
86224;BME280;76887;48.558;12.170;2024-03-23T03:24:31;96503.00;;;8.69;68.93
86224;BME280;76887;48.558;12.170;2024-03-23T03:26:57;96502.03;;;8.70;68.89
86224;BME280;76887;48.558;12.170;2024-03-23T03:29:23;96498.69;;;8.68;69.07
86224;BME280;76887;48.558;12.170;2024-03-23T03:31:49;96496.66;;;8.71;69.15
86224;BME280;76887;48.558;12.170;2024-03-23T03:34:15;96494.50;;;8.76;69.10
86224;BME280;76887;48.558;12.170;2024-03-23T03:36:41;96496.69;;;8.82;69.00
86224;BME280;76887;48.558;12.170;2024-03-23T03:39:06;96483.31;;;8.86;69.11
86224;BME280;76887;48.558;12.170;2024-03-23T03:41:32;96481.44;;;8.88;69.26
86224;BME280;76887;48.558;12.170;2024-03-23T03:43:58;96485.94;;;8.86;69.00
86224;BME280;76887;48.558;12.170;2024-03-23T03:46:28;96477.59;;;8.80;69.06
86224;BME280;76887;48.558;12.170;2024-03-23T03:48:56;96477.47;;;8.82;69.13
86224;BME280;76887;48.558;12.170;2024-03-23T03:51:22;96474.97;;;8.80;69.04
86224;BME280;76887;48.558;12.170;2024-03-23T03:53:48;96473.91;;;8.83;69.03
86224;BME280;76887;48.558;12.170;2024-03-23T03:56:13;96466.97;;;8.82;69.58
86224;BME280;76887;48.558;12.170;2024-03-23T03:58:39;96465.06;;;8.84;68.84
86224;BME280;76887;48.558;12.170;2024-03-23T04:01:05;96465.06;;;8.84;69.13
86224;BME280;76887;48.558;12.170;2024-03-23T04:03:31;96466.97;;;8.82;69.10
86224;BME280;76887;48.558;12.170;2024-03-23T04:05:56;96456.75;;;8.79;68.82
86224;BME280;76887;48.558;12.170;2024-03-23T04:08:22;96455.41;;;8.73;68.79
86224;BME280;76887;48.558;12.170;2024-03-23T04:10:47;96447.66;;;8.72;68.91
86224;BME280;76887;48.558;12.170;2024-03-23T04:13:13;96443.97;;;8.74;69.32
86224;BME280;76887;48.558;12.170;2024-03-23T04:15:39;96440.38;;;8.75;68.92
86224;BME280;76887;48.558;12.170;2024-03-23T04:18:05;96438.72;;;8.74;68.81
86224;BME280;76887;48.558;12.170;2024-03-23T04:20:30;96435.63;;;8.69;68.99
86224;BME280;76887;48.558;12.170;2024-03-23T04:23:00;96431.56;;;8.65;69.03
86224;BME280;76887;48.558;12.170;2024-03-23T04:25:26;96426.69;;;8.61;68.97
86224;BME280;76887;48.558;12.170;2024-03-23T04:27:51;96422.25;;;8.61;69.03
86224;BME280;76887;48.558;12.170;2024-03-23T04:30:17;96424.38;;;8.56;68.98
86224;BME280;76887;48.558;12.170;2024-03-23T04:32:43;96415.81;;;8.54;68.87
86224;BME280;76887;48.558;12.170;2024-03-23T04:35:09;96412.69;;;8.49;68.90
86224;BME280;76887;48.558;12.170;2024-03-23T04:37:38;96396.97;;;8.49;68.95
86224;BME280;76887;48.558;12.170;2024-03-23T04:40:06;96395.41;;;8.46;69.08
86224;BME280;76887;48.558;12.170;2024-03-23T04:42:32;96400.31;;;8.51;68.98
86224;BME280;76887;48.558;12.170;2024-03-23T04:44:58;96391.50;;;8.52;68.70
86224;BME280;76887;48.558;12.170;2024-03-23T04:47:24;96395.66;;;8.54;68.83
86224;BME280;76887;48.558;12.170;2024-03-23T04:49:49;96386.25;;;8.63;69.37
86224;BME280;76887;48.558;12.170;2024-03-23T04:52:16;96383.03;;;8.71;69.62
86224;BME280;76887;48.558;12.170;2024-03-23T04:54:41;96385.06;;;8.78;68.85
86224;BME280;76887;48.558;12.170;2024-03-23T04:57:07;96383.03;;;8.82;68.61
86224;BME280;76887;48.558;12.170;2024-03-23T04:59:33;96369.53;;;8.75;68.64
86224;BME280;76887;48.558;12.170;2024-03-23T05:01:59;96376.13;;;8.70;68.97
86224;BME280;76887;48.558;12.170;2024-03-23T05:04:26;96375.75;;;8.63;68.82
86224;BME280;76887;48.558;12.170;2024-03-23T05:06:52;96363.34;;;8.65;69.06
86224;BME280;76887;48.558;12.170;2024-03-23T05:09:17;96355.34;;;8.67;69.08
86224;BME280;76887;48.558;12.170;2024-03-23T05:11:43;96345.69;;;8.67;68.94
86224;BME280;76887;48.558;12.170;2024-03-23T05:14:08;96354.66;;;8.65;69.02
86224;BME280;76887;48.558;12.170;2024-03-23T05:16:34;96361.69;;;8.64;69.48
86224;BME280;76887;48.558;12.170;2024-03-23T05:19:00;96356.91;;;8.69;69.32
86224;BME280;76887;48.558;12.170;2024-03-23T05:21:26;96345.09;;;8.75;69.36
86224;BME280;76887;48.558;12.170;2024-03-23T05:23:53;96348.91;;;8.82;69.03
86224;BME280;76887;48.558;12.170;2024-03-23T05:26:19;96353.31;;;8.81;69.13
86224;BME280;76887;48.558;12.170;2024-03-23T05:28:44;96337.44;;;8.83;68.84
86224;BME280;76887;48.558;12.170;2024-03-23T05:31:10;96338.16;;;8.85;69.06
86224;BME280;76887;48.558;12.170;2024-03-23T05:33:36;96325.41;;;8.92;68.82
86224;BME280;76887;48.558;12.170;2024-03-23T05:36:05;96339.47;;;8.91;68.88
86224;BME280;76887;48.558;12.170;2024-03-23T05:38:31;96335.91;;;8.92;69.01
86224;BME280;76887;48.558;12.170;2024-03-23T05:40:57;96328.72;;;8.94;69.01
86224;BME280;76887;48.558;12.170;2024-03-23T05:43:23;96331.56;;;9.02;69.30
86224;BME280;76887;48.558;12.170;2024-03-23T05:45:55;96331.56;;;9.02;68.77
86224;BME280;76887;48.558;12.170;2024-03-23T05:48:21;96325.38;;;9.03;68.57
86224;BME280;76887;48.558;12.170;2024-03-23T05:50:48;96325.41;;;8.92;68.47
86224;BME280;76887;48.558;12.170;2024-03-23T05:53:15;96334.69;;;8.84;68.86
86224;BME280;76887;48.558;12.170;2024-03-23T05:55:40;96324.56;;;8.91;68.69
86224;BME280;76887;48.558;12.170;2024-03-23T05:58:06;96327.31;;;8.90;69.08
86224;BME280;76887;48.558;12.170;2024-03-23T06:00:31;96325.53;;;8.90;68.59
86224;BME280;76887;48.558;12.170;2024-03-23T06:02:57;96334.47;;;8.88;68.57
86224;BME280;76887;48.558;12.170;2024-03-23T06:05:23;96329.22;;;8.88;68.80
86224;BME280;76887;48.558;12.170;2024-03-23T06:07:49;96311.56;;;8.90;68.91
86224;BME280;76887;48.558;12.170;2024-03-23T06:10:15;96305.09;;;8.94;68.63
86224;BME280;76887;48.558;12.170;2024-03-23T06:12:41;96302.00;;;9.00;68.78
86224;BME280;76887;48.558;12.170;2024-03-23T06:15:07;96294.56;;;9.05;68.76
86224;BME280;76887;48.558;12.170;2024-03-23T06:17:38;96295.03;;;9.10;69.01
86224;BME280;76887;48.558;12.170;2024-03-23T06:20:05;96292.06;;;9.15;68.48
86224;BME280;76887;48.558;12.170;2024-03-23T06:22:33;96293.72;;;9.16;68.65
86224;BME280;76887;48.558;12.170;2024-03-23T06:24:59;96280.22;;;9.20;68.51
86224;BME280;76887;48.558;12.170;2024-03-23T06:27:24;96261.84;;;9.20;68.44
86224;BME280;76887;48.558;12.170;2024-03-23T06:29:50;96256.59;;;9.20;68.02
86224;BME280;76887;48.558;12.170;2024-03-23T06:32:15;96255.50;;;9.23;68.17
86224;BME280;76887;48.558;12.170;2024-03-23T06:34:42;96245.31;;;9.29;68.60
86224;BME280;76887;48.558;12.170;2024-03-23T06:37:07;96254.22;;;9.38;68.19
86224;BME280;76887;48.558;12.170;2024-03-23T06:39:37;96248.47;;;9.44;68.19
86224;BME280;76887;48.558;12.170;2024-03-23T06:42:03;96245.47;;;9.49;67.98
86224;BME280;76887;48.558;12.170;2024-03-23T06:44:29;96240.53;;;9.55;67.82
86224;BME280;76887;48.558;12.170;2024-03-23T06:46:55;96237.28;;;9.63;67.50
86224;BME280;76887;48.558;12.170;2024-03-23T06:49:22;96236.72;;;9.69;67.34
86224;BME280;76887;48.558;12.170;2024-03-23T06:51:48;96229.31;;;9.74;67.17
86224;BME280;76887;48.558;12.170;2024-03-23T06:54:13;96230.69;;;9.78;66.83
86224;BME280;76887;48.558;12.170;2024-03-23T06:56:40;96229.50;;;9.82;67.10
86224;BME280;76887;48.558;12.170;2024-03-23T06:59:06;96234.25;;;9.88;66.61
86224;BME280;76887;48.558;12.170;2024-03-23T07:01:32;96231.53;;;10.00;67.00
86224;BME280;76887;48.558;12.170;2024-03-23T07:03:57;96223.09;;;10.06;66.45
86224;BME280;76887;48.558;12.170;2024-03-23T07:06:23;96213.19;;;10.19;66.76
86224;BME280;76887;48.558;12.170;2024-03-23T07:08:48;96207.03;;;10.30;65.75
86224;BME280;76887;48.558;12.170;2024-03-23T07:11:24;96205.69;;;10.45;65.87
86224;BME280;76887;48.558;12.170;2024-03-23T07:13:50;96207.69;;;10.62;65.28
86224;BME280;76887;48.558;12.170;2024-03-23T07:16:16;96205.06;;;10.81;64.19
86224;BME280;76887;48.558;12.170;2024-03-23T07:18:42;96198.69;;;11.03;64.06
86224;BME280;76887;48.558;12.170;2024-03-23T07:21:08;96188.00;;;11.15;63.85
86224;BME280;76887;48.558;12.170;2024-03-23T07:23:33;96187.06;;;11.25;63.86
86224;BME280;76887;48.558;12.170;2024-03-23T07:26:01;96188.72;;;11.36;63.19
86224;BME280;76887;48.558;12.170;2024-03-23T07:28:26;96183.44;;;11.46;63.40
86224;BME280;76887;48.558;12.170;2024-03-23T07:31:07;96171.47;;;11.51;63.04
86224;BME280;76887;48.558;12.170;2024-03-23T07:33:45;96169.66;;;11.52;62.45
86224;BME280;76887;48.558;12.170;2024-03-23T07:36:11;96163.69;;;11.59;62.84
86224;BME280;76887;48.558;12.170;2024-03-23T07:38:37;96170.34;;;11.63;61.88
86224;BME280;76887;48.558;12.170;2024-03-23T07:41:09;96172.81;;;11.75;61.35
86224;BME280;76887;48.558;12.170;2024-03-23T07:43:36;96175.88;;;11.80;61.73
86224;BME280;76887;48.558;12.170;2024-03-23T07:46:02;96189.16;;;11.88;61.04
86224;BME280;76887;48.558;12.170;2024-03-23T07:48:29;96193.34;;;11.90;61.36
86224;BME280;76887;48.558;12.170;2024-03-23T07:51:03;96199.28;;;11.92;60.51
86224;BME280;76887;48.558;12.170;2024-03-23T07:53:30;96220.66;;;11.99;61.24
86224;BME280;76887;48.558;12.170;2024-03-23T07:56:00;96219.38;;;12.03;62.96
86224;BME280;76887;48.558;12.170;2024-03-23T07:58:26;96221.34;;;12.01;63.32
86224;BME280;76887;48.558;12.170;2024-03-23T08:00:56;96234.94;;;11.96;64.50
86224;BME280;76887;48.558;12.170;2024-03-23T08:03:22;96227.31;;;11.93;65.18
86224;BME280;76887;48.558;12.170;2024-03-23T08:05:48;96234.97;;;11.87;65.60
86224;BME280;76887;48.558;12.170;2024-03-23T08:08:14;96239.16;;;11.80;65.89
86224;BME280;76887;48.558;12.170;2024-03-23T08:10:50;96239.69;;;11.74;66.61
86224;BME280;76887;48.558;12.170;2024-03-23T08:13:16;96285.63;;;11.61;67.29
86224;BME280;76887;48.558;12.170;2024-03-23T08:15:42;96376.03;;;11.33;68.06
86224;BME280;76887;48.558;12.170;2024-03-23T08:18:07;96367.56;;;10.79;70.56
86224;BME280;76887;48.558;12.170;2024-03-23T08:20:33;96379.97;;;10.37;70.87
86224;BME280;76887;48.558;12.170;2024-03-23T08:22:59;96381.44;;;10.09;72.28
86224;BME280;76887;48.558;12.170;2024-03-23T08:25:24;96392.50;;;9.92;72.10
86224;BME280;76887;48.558;12.170;2024-03-23T08:27:50;96395.56;;;9.76;73.25
86224;BME280;76887;48.558;12.170;2024-03-23T08:30:15;96406.50;;;9.60;73.66
86224;BME280;76887;48.558;12.170;2024-03-23T08:32:41;96414.75;;;9.56;73.37
86224;BME280;76887;48.558;12.170;2024-03-23T08:35:07;96415.25;;;9.38;70.54
86224;BME280;76887;48.558;12.170;2024-03-23T08:37:33;96429.63;;;9.34;71.40
86224;BME280;76887;48.558;12.170;2024-03-23T08:39:59;96423.28;;;9.37;72.44
86224;BME280;76887;48.558;12.170;2024-03-23T08:42:24;96442.50;;;9.26;72.60
86224;BME280;76887;48.558;12.170;2024-03-23T08:44:50;96432.63;;;9.19;72.75
86224;BME280;76887;48.558;12.170;2024-03-23T08:47:16;96434.44;;;9.07;72.53
86224;BME280;76887;48.558;12.170;2024-03-23T08:49:41;96445.06;;;9.05;72.95
86224;BME280;76887;48.558;12.170;2024-03-23T08:52:08;96456.59;;;9.03;73.90
86224;BME280;76887;48.558;12.170;2024-03-23T08:54:33;96462.22;;;8.98;73.82
86224;BME280;76887;48.558;12.170;2024-03-23T08:57:00;96463.19;;;8.97;74.24
86224;BME280;76887;48.558;12.170;2024-03-23T08:59:26;96466.63;;;8.98;74.45
86224;BME280;76887;48.558;12.170;2024-03-23T09:01:52;96474.03;;;8.93;74.70
86224;BME280;76887;48.558;12.170;2024-03-23T09:04:17;96465.44;;;8.91;74.95
86224;BME280;76887;48.558;12.170;2024-03-23T09:06:43;96478.31;;;8.94;74.87
86224;BME280;76887;48.558;12.170;2024-03-23T09:09:09;96485.00;;;8.98;74.81
86224;BME280;76887;48.558;12.170;2024-03-23T09:11:34;96476.91;;;9.01;74.57
86224;BME280;76887;48.558;12.170;2024-03-23T09:14:00;96475.34;;;9.09;74.07
86224;BME280;76887;48.558;12.170;2024-03-23T09:16:25;96477.97;;;9.09;74.28
86224;BME280;76887;48.558;12.170;2024-03-23T09:18:52;96477.38;;;9.17;74.35
86224;BME280;76887;48.558;12.170;2024-03-23T09:21:18;96492.41;;;9.26;74.54
86224;BME280;76887;48.558;12.170;2024-03-23T09:23:44;96496.81;;;9.26;74.36
86224;BME280;76887;48.558;12.170;2024-03-23T09:26:10;96499.56;;;9.24;73.96
86224;BME280;76887;48.558;12.170;2024-03-23T09:28:36;96491.56;;;9.26;73.87
86224;BME280;76887;48.558;12.170;2024-03-23T09:31:07;96484.16;;;9.31;73.98
86224;BME280;76887;48.558;12.170;2024-03-23T09:33:34;96495.13;;;9.47;73.49
86224;BME280;76887;48.558;12.170;2024-03-23T09:36:04;96501.56;;;9.54;73.01
86224;BME280;76887;48.558;12.170;2024-03-23T09:38:29;96499.16;;;9.62;72.36
86224;BME280;76887;48.558;12.170;2024-03-23T09:40:57;96501.91;;;9.61;72.09
86224;BME280;76887;48.558;12.170;2024-03-23T09:43:23;96510.00;;;9.69;71.90
86224;BME280;76887;48.558;12.170;2024-03-23T09:45:49;96517.69;;;9.61;71.78
86224;BME280;76887;48.558;12.170;2024-03-23T09:48:15;96517.88;;;9.69;71.34
86224;BME280;76887;48.558;12.170;2024-03-23T09:50:45;96515.50;;;9.66;71.36
86224;BME280;76887;48.558;12.170;2024-03-23T09:53:13;96525.44;;;9.62;70.24
86224;BME280;76887;48.558;12.170;2024-03-23T09:55:40;96526.50;;;9.49;70.81
86224;BME280;76887;48.558;12.170;2024-03-23T09:58:06;96523.06;;;9.48;71.07
86224;BME280;76887;48.558;12.170;2024-03-23T10:00:35;96524.38;;;9.54;70.56
86224;BME280;76887;48.558;12.170;2024-03-23T10:03:01;96523.28;;;9.56;70.12
86224;BME280;76887;48.558;12.170;2024-03-23T10:05:28;96525.34;;;9.53;70.65
86224;BME280;76887;48.558;12.170;2024-03-23T10:07:54;96520.75;;;9.66;70.30
86224;BME280;76887;48.558;12.170;2024-03-23T10:10:20;96527.47;;;9.59;70.36
86224;BME280;76887;48.558;12.170;2024-03-23T10:12:48;96524.59;;;9.73;69.89
86224;BME280;76887;48.558;12.170;2024-03-23T10:15:21;96518.63;;;9.71;69.75
86224;BME280;76887;48.558;12.170;2024-03-23T10:17:47;96519.81;;;9.67;68.62
86224;BME280;76887;48.558;12.170;2024-03-23T10:20:20;96525.31;;;9.64;69.13
86224;BME280;76887;48.558;12.170;2024-03-23T10:22:48;96527.47;;;9.70;68.96
86224;BME280;76887;48.558;12.170;2024-03-23T10:25:15;96533.66;;;9.69;67.99
86224;BME280;76887;48.558;12.170;2024-03-23T10:27:41;96533.31;;;9.74;67.76
86224;BME280;76887;48.558;12.170;2024-03-23T10:30:11;96538.69;;;9.72;67.69
86224;BME280;76887;48.558;12.170;2024-03-23T10:32:38;96544.06;;;9.71;67.51
86224;BME280;76887;48.558;12.170;2024-03-23T10:35:24;96547.88;;;9.66;68.49
86224;BME280;76887;48.558;12.170;2024-03-23T10:37:51;96561.50;;;9.49;67.19
86224;BME280;76887;48.558;12.170;2024-03-23T10:40:17;96571.31;;;9.36;68.17
86224;BME280;76887;48.558;12.170;2024-03-23T10:42:44;96569.63;;;9.24;69.94
86224;BME280;76887;48.558;12.170;2024-03-23T10:45:09;96564.47;;;9.11;70.05
86224;BME280;76887;48.558;12.170;2024-03-23T10:47:36;96558.75;;;9.06;70.18
86224;BME280;76887;48.558;12.170;2024-03-23T10:50:05;96575.22;;;8.97;70.78
86224;BME280;76887;48.558;12.170;2024-03-23T10:52:34;96578.16;;;8.92;70.80
86224;BME280;76887;48.558;12.170;2024-03-23T10:55:05;96578.16;;;8.92;70.78
86224;BME280;76887;48.558;12.170;2024-03-23T10:57:48;96573.75;;;9.04;71.39
86224;BME280;76887;48.558;12.170;2024-03-23T11:00:15;96574.38;;;9.07;71.27
86224;BME280;76887;48.558;12.170;2024-03-23T11:02:41;96581.06;;;9.11;70.73
86224;BME280;76887;48.558;12.170;2024-03-23T11:07:51;96580.72;;;9.27;70.09
86224;BME280;76887;48.558;12.170;2024-03-23T11:10:25;96570.47;;;9.24;68.89
86224;BME280;76887;48.558;12.170;2024-03-23T11:12:52;96576.81;;;9.33;68.63
86224;BME280;76887;48.558;12.170;2024-03-23T11:15:18;96587.78;;;9.38;67.45
86224;BME280;76887;48.558;12.170;2024-03-23T11:18:02;96595.66;;;9.38;64.58
86224;BME280;76887;48.558;12.170;2024-03-23T11:20:32;96609.50;;;9.40;64.29
86224;BME280;76887;48.558;12.170;2024-03-23T11:22:59;96615.44;;;9.31;63.59
86224;BME280;76887;48.558;12.170;2024-03-23T11:25:26;96617.22;;;9.19;62.99
86224;BME280;76887;48.558;12.170;2024-03-23T11:27:53;96614.72;;;9.18;64.04
86224;BME280;76887;48.558;12.170;2024-03-23T11:32:48;96620.81;;;9.18;64.51
86224;BME280;76887;48.558;12.170;2024-03-23T11:35:30;96645.66;;;9.25;65.91
86224;BME280;76887;48.558;12.170;2024-03-23T11:40:31;96644.44;;;9.07;62.95
86224;BME280;76887;48.558;12.170;2024-03-23T11:42:58;96664.69;;;9.05;63.10
86224;BME280;76887;48.558;12.170;2024-03-23T11:45:24;96647.31;;;9.15;64.21
86224;BME280;76887;48.558;12.170;2024-03-23T11:48:10;96651.38;;;9.19;63.91
86224;BME280;76887;48.558;12.170;2024-03-23T11:50:39;96657.13;;;9.24;63.27
86224;BME280;76887;48.558;12.170;2024-03-23T11:53:11;96653.41;;;9.27;62.88
86224;BME280;76887;48.558;12.170;2024-03-23T11:55:54;96650.53;;;9.19;62.16
86224;BME280;76887;48.558;12.170;2024-03-23T11:58:21;96634.19;;;9.26;61.90
86224;BME280;76887;48.558;12.170;2024-03-23T12:00:57;96631.44;;;9.28;61.17
86224;BME280;76887;48.558;12.170;2024-03-23T12:03:24;96640.28;;;9.27;61.57
86224;BME280;76887;48.558;12.170;2024-03-23T12:05:55;96633.84;;;9.31;61.56
86224;BME280;76887;48.558;12.170;2024-03-23T12:08:29;96640.78;;;9.43;62.25
86224;BME280;76887;48.558;12.170;2024-03-23T12:13:31;96654.88;;;9.42;59.89
86224;BME280;76887;48.558;12.170;2024-03-23T12:16:18;96641.25;;;9.37;59.77
86224;BME280;76887;48.558;12.170;2024-03-23T12:18:47;96633.75;;;9.44;60.01
86224;BME280;76887;48.558;12.170;2024-03-23T12:21:13;96633.38;;;9.48;60.30
86224;BME280;76887;48.558;12.170;2024-03-23T12:23:39;96625.88;;;9.44;59.11
86224;BME280;76887;48.558;12.170;2024-03-23T12:26:05;96652.59;;;9.60;60.33
86224;BME280;76887;48.558;12.170;2024-03-23T12:28:32;96646.44;;;9.72;58.91
86224;BME280;76887;48.558;12.170;2024-03-23T12:30:58;96650.59;;;9.75;59.04
86224;BME280;76887;48.558;12.170;2024-03-23T12:33:24;96629.56;;;9.75;57.15
86224;BME280;76887;48.558;12.170;2024-03-23T12:35:50;96638.88;;;9.67;56.49
86224;BME280;76887;48.558;12.170;2024-03-23T12:38:16;96639.38;;;9.61;56.23
86224;BME280;76887;48.558;12.170;2024-03-23T12:40:49;96639.97;;;9.43;56.19
86224;BME280;76887;48.558;12.170;2024-03-23T12:43:15;96618.94;;;9.43;56.39
86224;BME280;76887;48.558;12.170;2024-03-23T12:45:40;96624.16;;;9.31;56.20
86224;BME280;76887;48.558;12.170;2024-03-23T12:48:06;96655.81;;;9.30;57.06
86224;BME280;76887;48.558;12.170;2024-03-23T12:50:32;96661.53;;;9.24;59.43
86224;BME280;76887;48.558;12.170;2024-03-23T12:52:58;96649.06;;;9.03;61.49
86224;BME280;76887;48.558;12.170;2024-03-23T12:55:23;96647.69;;;8.87;62.13
86224;BME280;76887;48.558;12.170;2024-03-23T12:57:49;96648.38;;;8.77;62.36
86224;BME280;76887;48.558;12.170;2024-03-23T13:00:15;96638.63;;;8.79;62.03
86224;BME280;76887;48.558;12.170;2024-03-23T13:02:44;96643.06;;;8.90;60.58
86224;BME280;76887;48.558;12.170;2024-03-23T13:05:09;96639.13;;;8.96;60.84
86224;BME280;76887;48.558;12.170;2024-03-23T13:07:35;96648.69;;;8.97;60.31
86224;BME280;76887;48.558;12.170;2024-03-23T13:10:01;96652.75;;;9.01;60.15
86224;BME280;76887;48.558;12.170;2024-03-23T13:12:27;96651.41;;;8.95;59.12
86224;BME280;76887;48.558;12.170;2024-03-23T13:14:53;96651.53;;;8.94;58.91
86224;BME280;76887;48.558;12.170;2024-03-23T13:17:18;96649.03;;;8.92;58.66
86224;BME280;76887;48.558;12.170;2024-03-23T13:19:44;96653.69;;;8.89;57.70
86224;BME280;76887;48.558;12.170;2024-03-23T13:22:09;96659.66;;;8.91;57.23
86224;BME280;76887;48.558;12.170;2024-03-23T13:24:38;96670.75;;;8.94;57.55
86224;BME280;76887;48.558;12.170;2024-03-23T13:27:04;96661.69;;;8.98;56.93
86224;BME280;76887;48.558;12.170;2024-03-23T13:29:33;96660.38;;;9.04;56.58
86224;BME280;76887;48.558;12.170;2024-03-23T13:32:08;96658.50;;;9.06;54.75
86224;BME280;76887;48.558;12.170;2024-03-23T13:34:34;96664.47;;;9.08;54.87
86224;BME280;76887;48.558;12.170;2024-03-23T13:37:00;96664.81;;;9.03;54.25
86224;BME280;76887;48.558;12.170;2024-03-23T13:39:26;96650.38;;;8.98;53.45
86224;BME280;76887;48.558;12.170;2024-03-23T13:41:54;96649.97;;;8.91;54.15
86224;BME280;76887;48.558;12.170;2024-03-23T13:44:21;96651.41;;;8.95;55.61
86224;BME280;76887;48.558;12.170;2024-03-23T13:46:47;96650.50;;;8.96;55.47
86224;BME280;76887;48.558;12.170;2024-03-23T13:49:24;96663.81;;;8.93;56.98
86224;BME280;76887;48.558;12.170;2024-03-23T13:51:50;96661.81;;;8.97;58.06
86224;BME280;76887;48.558;12.170;2024-03-23T13:54:15;96658.38;;;8.96;55.16
86224;BME280;76887;48.558;12.170;2024-03-23T13:56:41;96666.56;;;8.92;53.66
86224;BME280;76887;48.558;12.170;2024-03-23T13:59:06;96666.81;;;8.89;54.21
86224;BME280;76887;48.558;12.170;2024-03-23T14:01:32;96660.09;;;8.84;54.54
86224;BME280;76887;48.558;12.170;2024-03-23T14:03:57;96666.28;;;8.83;54.77